This is the latest recevied weather packets stored in our database for station/object W5HKR. If no packets are shown the sender has not sent any weather packets the latest 1 day(s).
| Time | Temp. | Humidity | Pressure | Rain* | Wind** | Luminosity | Snow |
|---|---|---|---|---|---|---|---|
| 1778033905 | 26.67° C | 81% | 978.7 hPa | 0 mm | 4.47 m/s, 266° | - | - |
| 1778033757 | 18.33° C | 91% | 990.6 hPa | 0 mm | 5.81 m/s, 269° | - | - |
| 1778033606 | 26.67° C | 81% | 978.7 hPa | 0 mm | 4.47 m/s, 264° | - | - |
| 1778033305 | 26.67° C | 80% | 978.3 hPa | 0 mm | 5.36 m/s, 272° | - | - |
| 1778033006 | 18.33° C | 91% | 990.6 hPa | 0 mm | 5.36 m/s, 268° | - | - |
| 1778032676 | 18.33° C | 91% | 990.6 hPa | 0 mm | 5.36 m/s, 272° | - | - |
| 1778032406 | 27.22° C | 78% | 978 hPa | 0 mm | 4.47 m/s, 262° | - | - |
| 1778032107 | 18.33° C | 91% | 990.6 hPa | 0 mm | 5.36 m/s, 267° | - | - |
| 1778031806 | 27.78° C | 77% | 978.9 hPa | 0 mm | 5.36 m/s, 267° | - | - |
| 1778031597 | 27.78° C | 76% | 978.4 hPa | 0 mm | 5.36 m/s, 270° | - | - |
| 1778031508 | 18.33° C | 91% | 990.6 hPa | 0 mm | 5.36 m/s, 268° | - | - |
| 1778031206 | 27.78° C | 76% | 978 hPa | 0 mm | 5.81 m/s, 262° | - | - |
| 1778030905 | 27.78° C | 75% | 978 hPa | 0 mm | 5.36 m/s, 270° | - | - |
| 1778030605 | 28.33° C | 74% | 978.3 hPa | 0 mm | 5.36 m/s, 264° | - | - |
| 1778030516 | 28.33° C | 74% | 978.3 hPa | 0 mm | 5.36 m/s, 257° | - | - |
| 1778030305 | 28.33° C | 73% | 978 hPa | 0 mm | 5.36 m/s, 269° | - | - |
| 1778030006 | 18.33° C | 91% | 990.6 hPa | 0 mm | 5.36 m/s, 264° | - | - |
| 1778029706 | 18.33° C | 91% | 990.6 hPa | 0 mm | 5.81 m/s, 267° | - | - |
| 1778029437 | 18.33° C | 91% | 990.6 hPa | 0 mm | 5.36 m/s, 268° | - | - |
| 1778029405 | 28.33° C | 72% | 977.6 hPa | 0 mm | 5.81 m/s, 265° | - | - |
| 1778029104 | 28.33° C | 72% | 977.6 hPa | 0 mm | 5.36 m/s, 272° | - | - |
| 1778028805 | 28.89° C | 72% | 977.9 hPa | 0 mm | 5.36 m/s, 268° | - | - |
| 1778028356 | 18.33° C | 91% | 990.6 hPa | 0 mm | 5.36 m/s, 261° | - | - |
| 1778028204 | 28.89° C | 72% | 977.9 hPa | 0 mm | 5.81 m/s, 267° | - | - |
| 1778027906 | 18.33° C | 91% | 990.6 hPa | 0 mm | 5.36 m/s, 267° | - | - |
* Rain latest hour (hover to see other rain measurements)
** Current wind speed in m/s (hover to see current wind gust speed)